Freeborn, Missouri
Current Conditions -  °F | °C
As of 12:53 AM on Saturday 29 Nov 2014 (Local Time) from KPOF Reporting Station
Clear Clear  
Wind Chill: 38°   Ceiling: Unl
Heat Index: 42°   Visibility: 10mi
Dew Point: 32°   Wind: 6mph
Humidity: 67%   Direction: 190°S
Pressure: 29.97"   Gusts: NA
Location:  36.4408°N, 89.9914°W
Report Text: KPOF 290653Z AUTO 19005KT 10SM CLR 06/00 A2997 RMK AO2 SLP153 T00560000
Loading
Personal Weather Stations






























Interactive Weather Map New forecast layout! Learn more

10-Day Weather Forecast

Advertisements
Track Severe Weather on mobile